This is the latest recevied weather packets stored in our database for station/object KD4UFD. If no packets are shown the sender has not sent any weather packets the latest 1 day(s).
| Time | Temp. | Humidity | Pressure | Rain* | Wind** | Luminosity | Snow |
|---|---|---|---|---|---|---|---|
| 1778047845 | 18.33° C | 71% | 1010 hPa | 0 mm | - | 0 W/m² | - |
| 1778047543 | 17.78° C | 74% | 1010.2 hPa | 0 mm | - | 0 W/m² | - |
| 1778046937 | 17.78° C | 75% | 1010.7 hPa | 0 mm | - | 0 W/m² | - |
| 1778046633 | 18.33° C | 75% | 1010.5 hPa | 0 mm | - | 0 W/m² | - |
| 1778046331 | 17.78° C | 73% | 1010.7 hPa | 0 mm | - | 0 W/m² | - |
| 1778046026 | 17.78° C | 73% | 1010.6 hPa | 0 mm | - | 0 W/m² | - |
| 1778045725 | 18.33° C | 72% | 1010.7 hPa | 0 mm | - | 0 W/m² | - |
| 1778045121 | 19.44° C | 69% | 1010.6 hPa | 1.78 mm | - | 0 W/m² | - |
| 1778044515 | 20° C | 61% | 1011.1 hPa | 0 mm | - | 0 W/m² | - |
| 1778044212 | 19.44° C | 61% | 1010.7 hPa | 0 mm | - | 0 W/m² | - |
| 1778043910 | 19.44° C | 62% | 1010.8 hPa | 0 mm | - | 0 W/m² | - |
| 1778043303 | 19.44° C | 63% | 1010.8 hPa | 0 mm | - | 0 W/m² | - |
| 1778042698 | 19.44° C | 66% | 1010.8 hPa | 0 mm | - | 0 W/m² | - |
| 1778042394 | 19.44° C | 66% | 1010.8 hPa | 0 mm | - | 0 W/m² | - |
| 1778041489 | 20° C | 61% | 1010.8 hPa | 0 mm | - | 0 W/m² | - |
| 1778041186 | 20° C | 60% | 1011.1 hPa | 0 mm | - | 0 W/m² | - |
| 1778040884 | 20° C | 59% | 1010.9 hPa | 0 mm | - | 0 W/m² | - |
| 1778040581 | 20° C | 59% | 1010.9 hPa | 0 mm | - | 0 W/m² | - |
| 1778039974 | 20° C | 61% | 1010.8 hPa | 0 mm | - | 0 W/m² | - |
| 1778039672 | 20° C | 62% | 1010.8 hPa | 0 mm | - | 0 W/m² | - |
| 1778039368 | 20.56° C | 60% | 1010.9 hPa | 0 mm | - | 0 W/m² | - |
| 1778039066 | 20.56° C | 58% | 1010.9 hPa | 0 mm | - | 0 W/m² | - |
| 1778038763 | 21.11° C | 55% | 1011 hPa | 0 mm | - | 0 W/m² | - |
| 1778038460 | 21.67° C | 52% | 1011.2 hPa | 0 mm | - | 0 W/m² | - |
| 1778038157 | 21.67° C | 52% | 1011 hPa | 0 mm | - | 0 W/m² | - |
* Rain latest hour (hover to see other rain measurements)
** Current wind speed in m/s (hover to see current wind gust speed)